sensor_id;sensor_type;location;lat;lon;timestamp;P1;durP1;ratioP1;P2;durP2;ratioP2
6580;SDS011;3324;50.796;7.228;2022-11-02T00:00:52;0.30;;;0.30;;
6580;SDS011;3324;50.796;7.228;2022-11-02T00:03:17;2.00;;;0.70;;
6580;SDS011;3324;50.796;7.228;2022-11-02T00:05:43;2.10;;;0.70;;
6580;SDS011;3324;50.796;7.228;2022-11-02T00:08:09;0.40;;;0.40;;
6580;SDS011;3324;50.796;7.228;2022-11-02T00:10:34;0.30;;;0.30;;
6580;SDS011;3324;50.796;7.228;2022-11-02T00:13:00;0.35;;;0.35;;
6580;SDS011;3324;50.796;7.228;2022-11-02T00:15:27;2.10;;;0.70;;
6580;SDS011;3324;50.796;7.228;2022-11-02T00:18:03;0.30;;;0.30;;
6580;SDS011;3324;50.796;7.228;2022-11-02T00:20:34;0.40;;;0.40;;
6580;SDS011;3324;50.796;7.228;2022-11-02T00:23:01;0.30;;;0.30;;
6580;SDS011;3324;50.796;7.228;2022-11-02T00:25:27;0.35;;;0.35;;
6580;SDS011;3324;50.796;7.228;2022-11-02T00:27:53;0.40;;;0.40;;
6580;SDS011;3324;50.796;7.228;2022-11-02T00:30:19;0.40;;;0.40;;
6580;SDS011;3324;50.796;7.228;2022-11-02T00:32:45;2.10;;;0.70;;
6580;SDS011;3324;50.796;7.228;2022-11-02T00:35:10;0.30;;;0.30;;
6580;SDS011;3324;50.796;7.228;2022-11-02T00:37:36;0.40;;;0.40;;
6580;SDS011;3324;50.796;7.228;2022-11-02T00:40:02;0.40;;;0.40;;
6580;SDS011;3324;50.796;7.228;2022-11-02T00:42:28;0.40;;;0.40;;
6580;SDS011;3324;50.796;7.228;2022-11-02T00:44:54;3.70;;;1.50;;
6580;SDS011;3324;50.796;7.228;2022-11-02T00:47:19;2.10;;;0.70;;
6580;SDS011;3324;50.796;7.228;2022-11-02T00:49:45;0.40;;;0.40;;
6580;SDS011;3324;50.796;7.228;2022-11-02T00:52:10;0.40;;;0.40;;
6580;SDS011;3324;50.796;7.228;2022-11-02T00:54:36;0.40;;;0.40;;
6580;SDS011;3324;50.796;7.228;2022-11-02T00:57:01;2.10;;;0.70;;
6580;SDS011;3324;50.796;7.228;2022-11-02T00:59:27;0.30;;;0.30;;
6580;SDS011;3324;50.796;7.228;2022-11-02T01:01:53;0.30;;;0.30;;
6580;SDS011;3324;50.796;7.228;2022-11-02T01:04:18;0.40;;;0.40;;
6580;SDS011;3324;50.796;7.228;2022-11-02T01:06:44;2.10;;;0.70;;
6580;SDS011;3324;50.796;7.228;2022-11-02T01:09:10;0.30;;;0.30;;
6580;SDS011;3324;50.796;7.228;2022-11-02T01:11:38;0.30;;;0.30;;
6580;SDS011;3324;50.796;7.228;2022-11-02T01:14:04;1.30;;;1.10;;
6580;SDS011;3324;50.796;7.228;2022-11-02T01:16:30;2.10;;;0.70;;
6580;SDS011;3324;50.796;7.228;2022-11-02T01:18:56;2.10;;;0.65;;
6580;SDS011;3324;50.796;7.228;2022-11-02T01:21:22;0.30;;;0.30;;
6580;SDS011;3324;50.796;7.228;2022-11-02T01:23:48;0.30;;;0.30;;
6580;SDS011;3324;50.796;7.228;2022-11-02T01:26:14;0.40;;;0.40;;
6580;SDS011;3324;50.796;7.228;2022-11-02T01:28:40;0.40;;;0.40;;
6580;SDS011;3324;50.796;7.228;2022-11-02T01:31:06;0.30;;;0.30;;
6580;SDS011;3324;50.796;7.228;2022-11-02T01:33:33;0.30;;;0.30;;
6580;SDS011;3324;50.796;7.228;2022-11-02T01:36:01;0.30;;;0.30;;
6580;SDS011;3324;50.796;7.228;2022-11-02T01:38:29;0.40;;;0.40;;
6580;SDS011;3324;50.796;7.228;2022-11-02T01:40:55;0.40;;;0.40;;
6580;SDS011;3324;50.796;7.228;2022-11-02T01:45:48;0.30;;;0.30;;
6580;SDS011;3324;50.796;7.228;2022-11-02T01:48:25;2.10;;;0.70;;
6580;SDS011;3324;50.796;7.228;2022-11-02T01:50:57;2.10;;;0.70;;
6580;SDS011;3324;50.796;7.228;2022-11-02T01:53:26;2.10;;;0.70;;
6580;SDS011;3324;50.796;7.228;2022-11-02T01:55:53;0.30;;;0.30;;
6580;SDS011;3324;50.796;7.228;2022-11-02T01:58:19;0.30;;;0.30;;
6580;SDS011;3324;50.796;7.228;2022-11-02T02:00:45;2.15;;;0.80;;
6580;SDS011;3324;50.796;7.228;2022-11-02T02:03:14;2.10;;;0.60;;
6580;SDS011;3324;50.796;7.228;2022-11-02T02:05:47;0.40;;;0.40;;
6580;SDS011;3324;50.796;7.228;2022-11-02T02:08:25;2.10;;;0.70;;
6580;SDS011;3324;50.796;7.228;2022-11-02T02:10:55;2.10;;;0.70;;
6580;SDS011;3324;50.796;7.228;2022-11-02T02:13:21;2.10;;;0.70;;
6580;SDS011;3324;50.796;7.228;2022-11-02T02:15:55;0.40;;;0.40;;
6580;SDS011;3324;50.796;7.228;2022-11-02T02:18:59;2.10;;;0.70;;
6580;SDS011;3324;50.796;7.228;2022-11-02T02:21:37;2.10;;;0.70;;
6580;SDS011;3324;50.796;7.228;2022-11-02T02:27:15;2.10;;;0.70;;
6580;SDS011;3324;50.796;7.228;2022-11-02T02:30:00;0.30;;;0.30;;
6580;SDS011;3324;50.796;7.228;2022-11-02T02:35:23;0.30;;;0.30;;
6580;SDS011;3324;50.796;7.228;2022-11-02T02:37:57;2.10;;;0.70;;
6580;SDS011;3324;50.796;7.228;2022-11-02T02:43:01;2.10;;;0.70;;
6580;SDS011;3324;50.796;7.228;2022-11-02T02:45:38;0.30;;;0.30;;
6580;SDS011;3324;50.796;7.228;2022-11-02T02:48:12;2.10;;;0.70;;
6580;SDS011;3324;50.796;7.228;2022-11-02T02:50:50;2.20;;;0.70;;
6580;SDS011;3324;50.796;7.228;2022-11-02T02:53:21;0.30;;;0.30;;
6580;SDS011;3324;50.796;7.228;2022-11-02T02:55:54;2.10;;;0.70;;
6580;SDS011;3324;50.796;7.228;2022-11-02T02:58:25;0.30;;;0.30;;
6580;SDS011;3324;50.796;7.228;2022-11-02T03:00:54;0.30;;;0.30;;
6580;SDS011;3324;50.796;7.228;2022-11-02T03:03:22;0.30;;;0.30;;
6580;SDS011;3324;50.796;7.228;2022-11-02T03:08:34;0.90;;;0.90;;
6580;SDS011;3324;50.796;7.228;2022-11-02T03:11:12;2.10;;;0.70;;
6580;SDS011;3324;50.796;7.228;2022-11-02T03:24:15;0.40;;;0.40;;
6580;SDS011;3324;50.796;7.228;2022-11-02T03:26:55;2.10;;;0.70;;
6580;SDS011;3324;50.796;7.228;2022-11-02T03:29:38;2.30;;;0.70;;
6580;SDS011;3324;50.796;7.228;2022-11-02T03:32:23;2.10;;;0.70;;
6580;SDS011;3324;50.796;7.228;2022-11-02T03:35:01;0.40;;;0.40;;
6580;SDS011;3324;50.796;7.228;2022-11-02T03:37:37;2.10;;;0.75;;
6580;SDS011;3324;50.796;7.228;2022-11-02T03:40:57;2.10;;;0.70;;
6580;SDS011;3324;50.796;7.228;2022-11-02T03:43:07;0.40;;;0.40;;
6580;SDS011;3324;50.796;7.228;2022-11-02T03:45:42;0.45;;;0.45;;
6580;SDS011;3324;50.796;7.228;2022-11-02T03:48:13;0.40;;;0.40;;
6580;SDS011;3324;50.796;7.228;2022-11-02T03:50:42;0.35;;;0.35;;
6580;SDS011;3324;50.796;7.228;2022-11-02T03:53:12;2.10;;;0.70;;
6580;SDS011;3324;50.796;7.228;2022-11-02T03:55:51;11.20;;;5.10;;
6580;SDS011;3324;50.796;7.228;2022-11-02T03:58:20;0.40;;;0.40;;
6580;SDS011;3324;50.796;7.228;2022-11-02T04:00:48;0.40;;;0.40;;
6580;SDS011;3324;50.796;7.228;2022-11-02T04:03:16;0.40;;;0.40;;
6580;SDS011;3324;50.796;7.228;2022-11-02T04:05:44;2.10;;;0.80;;
6580;SDS011;3324;50.796;7.228;2022-11-02T04:08:09;2.10;;;0.70;;
6580;SDS011;3324;50.796;7.228;2022-11-02T04:10:48;2.10;;;0.70;;
6580;SDS011;3324;50.796;7.228;2022-11-02T04:13:34;0.50;;;0.50;;
6580;SDS011;3324;50.796;7.228;2022-11-02T04:16:18;0.50;;;0.50;;
6580;SDS011;3324;50.796;7.228;2022-11-02T04:18:44;0.50;;;0.50;;
6580;SDS011;3324;50.796;7.228;2022-11-02T04:21:28;0.40;;;0.40;;
6580;SDS011;3324;50.796;7.228;2022-11-02T04:23:54;0.30;;;0.30;;
6580;SDS011;3324;50.796;7.228;2022-11-02T04:26:38;0.30;;;0.30;;
6580;SDS011;3324;50.796;7.228;2022-11-02T04:29:04;2.10;;;0.70;;
6580;SDS011;3324;50.796;7.228;2022-11-02T04:31:30;2.10;;;0.70;;
6580;SDS011;3324;50.796;7.228;2022-11-02T04:33:56;0.40;;;0.40;;
6580;SDS011;3324;50.796;7.228;2022-11-02T04:36:27;0.30;;;0.30;;
6580;SDS011;3324;50.796;7.228;2022-11-02T04:38:53;0.40;;;0.40;;
6580;SDS011;3324;50.796;7.228;2022-11-02T04:41:19;2.10;;;0.70;;
6580;SDS011;3324;50.796;7.228;2022-11-02T04:44:05;0.40;;;0.40;;
6580;SDS011;3324;50.796;7.228;2022-11-02T04:46:32;0.30;;;0.30;;
6580;SDS011;3324;50.796;7.228;2022-11-02T04:48:59;0.50;;;0.50;;
6580;SDS011;3324;50.796;7.228;2022-11-02T04:51:26;2.30;;;0.80;;
6580;SDS011;3324;50.796;7.228;2022-11-02T04:53:53;0.40;;;0.40;;
6580;SDS011;3324;50.796;7.228;2022-11-02T04:56:19;0.50;;;0.50;;
6580;SDS011;3324;50.796;7.228;2022-11-02T04:58:49;0.50;;;0.50;;
6580;SDS011;3324;50.796;7.228;2022-11-02T05:01:16;2.10;;;0.80;;
6580;SDS011;3324;50.796;7.228;2022-11-02T05:03:45;0.50;;;0.50;;
6580;SDS011;3324;50.796;7.228;2022-11-02T05:06:12;2.10;;;0.85;;
6580;SDS011;3324;50.796;7.228;2022-11-02T05:08:38;2.10;;;0.80;;
6580;SDS011;3324;50.796;7.228;2022-11-02T05:11:04;0.40;;;0.40;;
6580;SDS011;3324;50.796;7.228;2022-11-02T05:13:29;0.50;;;0.50;;
6580;SDS011;3324;50.796;7.228;2022-11-02T05:15:55;0.40;;;0.40;;
6580;SDS011;3324;50.796;7.228;2022-11-02T05:18:22;0.40;;;0.40;;
6580;SDS011;3324;50.796;7.228;2022-11-02T05:20:49;0.40;;;0.40;;
6580;SDS011;3324;50.796;7.228;2022-11-02T05:23:16;2.10;;;0.70;;
6580;SDS011;3324;50.796;7.228;2022-11-02T05:25:50;2.10;;;0.70;;
6580;SDS011;3324;50.796;7.228;2022-11-02T05:28:22;0.30;;;0.30;;
6580;SDS011;3324;50.796;7.228;2022-11-02T05:30:48;0.40;;;0.40;;
6580;SDS011;3324;50.796;7.228;2022-11-02T05:33:15;0.50;;;0.50;;
6580;SDS011;3324;50.796;7.228;2022-11-02T05:35:41;0.30;;;0.30;;
6580;SDS011;3324;50.796;7.228;2022-11-02T05:38:06;0.30;;;0.30;;
6580;SDS011;3324;50.796;7.228;2022-11-02T05:40:32;2.10;;;0.70;;
6580;SDS011;3324;50.796;7.228;2022-11-02T05:42:58;0.30;;;0.30;;
6580;SDS011;3324;50.796;7.228;2022-11-02T05:45:25;2.10;;;0.70;;
6580;SDS011;3324;50.796;7.228;2022-11-02T05:47:51;0.30;;;0.30;;
6580;SDS011;3324;50.796;7.228;2022-11-02T05:50:16;0.30;;;0.30;;
6580;SDS011;3324;50.796;7.228;2022-11-02T05:52:42;0.30;;;0.30;;
6580;SDS011;3324;50.796;7.228;2022-11-02T05:55:08;0.30;;;0.30;;
6580;SDS011;3324;50.796;7.228;2022-11-02T05:57:33;2.10;;;0.70;;
6580;SDS011;3324;50.796;7.228;2022-11-02T05:59:59;0.40;;;0.40;;
6580;SDS011;3324;50.796;7.228;2022-11-02T06:02:25;0.40;;;0.40;;
6580;SDS011;3324;50.796;7.228;2022-11-02T06:04:50;0.40;;;0.40;;
6580;SDS011;3324;50.796;7.228;2022-11-02T06:07:16;2.10;;;0.70;;
6580;SDS011;3324;50.796;7.228;2022-11-02T06:09:41;0.50;;;0.50;;
6580;SDS011;3324;50.796;7.228;2022-11-02T06:12:07;0.50;;;0.50;;
6580;SDS011;3324;50.796;7.228;2022-11-02T06:14:32;0.40;;;0.40;;
6580;SDS011;3324;50.796;7.228;2022-11-02T06:16:58;2.10;;;0.60;;
6580;SDS011;3324;50.796;7.228;2022-11-02T06:19:23;0.30;;;0.30;;
6580;SDS011;3324;50.796;7.228;2022-11-02T06:21:49;0.30;;;0.30;;
6580;SDS011;3324;50.796;7.228;2022-11-02T06:24:15;0.40;;;0.40;;
6580;SDS011;3324;50.796;7.228;2022-11-02T06:26:40;2.10;;;0.70;;
6580;SDS011;3324;50.796;7.228;2022-11-02T06:29:06;0.30;;;0.30;;
6580;SDS011;3324;50.796;7.228;2022-11-02T06:31:31;0.30;;;0.30;;
6580;SDS011;3324;50.796;7.228;2022-11-02T06:33:57;0.40;;;0.40;;
6580;SDS011;3324;50.796;7.228;2022-11-02T06:36:23;2.10;;;0.80;;
6580;SDS011;3324;50.796;7.228;2022-11-02T06:38:48;0.40;;;0.40;;
6580;SDS011;3324;50.796;7.228;2022-11-02T06:41:15;0.50;;;0.50;;
6580;SDS011;3324;50.796;7.228;2022-11-02T06:43:40;0.50;;;0.50;;
6580;SDS011;3324;50.796;7.228;2022-11-02T06:46:06;0.50;;;0.50;;
6580;SDS011;3324;50.796;7.228;2022-11-02T06:48:32;0.50;;;0.50;;
6580;SDS011;3324;50.796;7.228;2022-11-02T06:50:58;2.10;;;0.80;;
6580;SDS011;3324;50.796;7.228;2022-11-02T06:53:24;2.20;;;0.80;;
6580;SDS011;3324;50.796;7.228;2022-11-02T06:55:53;2.10;;;0.80;;
6580;SDS011;3324;50.796;7.228;2022-11-02T06:58:20;10.40;;;4.80;;
6580;SDS011;3324;50.796;7.228;2022-11-02T07:00:50;2.10;;;0.80;;
6580;SDS011;3324;50.796;7.228;2022-11-02T07:03:20;0.40;;;0.40;;
6580;SDS011;3324;50.796;7.228;2022-11-02T07:05:49;0.40;;;0.40;;
6580;SDS011;3324;50.796;7.228;2022-11-02T07:08:16;0.40;;;0.40;;
6580;SDS011;3324;50.796;7.228;2022-11-02T07:10:42;0.40;;;0.40;;
6580;SDS011;3324;50.796;7.228;2022-11-02T07:13:08;0.40;;;0.40;;
6580;SDS011;3324;50.796;7.228;2022-11-02T07:15:33;0.40;;;0.40;;
6580;SDS011;3324;50.796;7.228;2022-11-02T07:17:59;2.10;;;0.70;;
6580;SDS011;3324;50.796;7.228;2022-11-02T07:20:24;0.40;;;0.40;;
6580;SDS011;3324;50.796;7.228;2022-11-02T07:22:54;0.40;;;0.40;;
6580;SDS011;3324;50.796;7.228;2022-11-02T07:25:21;2.30;;;0.80;;
6580;SDS011;3324;50.796;7.228;2022-11-02T07:27:48;2.10;;;0.70;;
6580;SDS011;3324;50.796;7.228;2022-11-02T07:30:14;2.30;;;0.70;;
6580;SDS011;3324;50.796;7.228;2022-11-02T07:32:40;0.40;;;0.40;;
6580;SDS011;3324;50.796;7.228;2022-11-02T07:35:07;2.10;;;0.70;;
6580;SDS011;3324;50.796;7.228;2022-11-02T07:37:34;0.40;;;0.40;;
6580;SDS011;3324;50.796;7.228;2022-11-02T07:40:00;0.40;;;0.40;;
6580;SDS011;3324;50.796;7.228;2022-11-02T07:42:25;2.10;;;0.75;;
6580;SDS011;3324;50.796;7.228;2022-11-02T07:44:51;2.00;;;0.70;;
6580;SDS011;3324;50.796;7.228;2022-11-02T07:47:16;0.30;;;0.30;;
6580;SDS011;3324;50.796;7.228;2022-11-02T07:49:42;0.30;;;0.30;;
6580;SDS011;3324;50.796;7.228;2022-11-02T07:52:08;2.10;;;0.70;;
6580;SDS011;3324;50.796;7.228;2022-11-02T07:54:33;2.10;;;0.70;;
6580;SDS011;3324;50.796;7.228;2022-11-02T07:56:59;0.40;;;0.40;;
6580;SDS011;3324;50.796;7.228;2022-11-02T07:59:24;0.40;;;0.40;;
6580;SDS011;3324;50.796;7.228;2022-11-02T08:01:50;2.10;;;0.80;;
6580;SDS011;3324;50.796;7.228;2022-11-02T08:04:15;0.50;;;0.50;;
6580;SDS011;3324;50.796;7.228;2022-11-02T08:06:41;0.30;;;0.30;;
6580;SDS011;3324;50.796;7.228;2022-11-02T08:09:06;0.40;;;0.40;;
6580;SDS011;3324;50.796;7.228;2022-11-02T08:11:32;2.10;;;0.70;;
6580;SDS011;3324;50.796;7.228;2022-11-02T08:13:58;0.40;;;0.40;;
6580;SDS011;3324;50.796;7.228;2022-11-02T08:16:23;0.40;;;0.40;;
6580;SDS011;3324;50.796;7.228;2022-11-02T08:18:49;0.40;;;0.40;;
6580;SDS011;3324;50.796;7.228;2022-11-02T08:21:14;2.30;;;0.80;;
6580;SDS011;3324;50.796;7.228;2022-11-02T08:23:40;0.40;;;0.40;;
6580;SDS011;3324;50.796;7.228;2022-11-02T08:26:05;0.50;;;0.50;;
6580;SDS011;3324;50.796;7.228;2022-11-02T08:28:31;0.50;;;0.50;;
6580;SDS011;3324;50.796;7.228;2022-11-02T08:31:00;2.30;;;1.70;;
6580;SDS011;3324;50.796;7.228;2022-11-02T08:33:26;0.50;;;0.50;;
6580;SDS011;3324;50.796;7.228;2022-11-02T08:35:52;0.30;;;0.30;;
6580;SDS011;3324;50.796;7.228;2022-11-02T08:38:18;0.20;;;0.20;;
6580;SDS011;3324;50.796;7.228;2022-11-02T08:40:46;2.30;;;1.93;;
6580;SDS011;3324;50.796;7.228;2022-11-02T08:43:13;0.20;;;0.20;;
6580;SDS011;3324;50.796;7.228;2022-11-02T08:45:40;0.20;;;0.20;;
6580;SDS011;3324;50.796;7.228;2022-11-02T08:48:07;0.20;;;0.20;;
6580;SDS011;3324;50.796;7.228;2022-11-02T08:50:33;0.20;;;0.10;;
6580;SDS011;3324;50.796;7.228;2022-11-02T08:52:59;0.20;;;0.10;;
6580;SDS011;3324;50.796;7.228;2022-11-02T08:55:25;0.20;;;0.20;;
6580;SDS011;3324;50.796;7.228;2022-11-02T09:00:19;0.30;;;0.30;;
6580;SDS011;3324;50.796;7.228;2022-11-02T09:02:59;2.00;;;0.60;;
6580;SDS011;3324;50.796;7.228;2022-11-02T09:05:29;0.20;;;0.20;;
6580;SDS011;3324;50.796;7.228;2022-11-02T09:07:58;0.20;;;0.20;;
6580;SDS011;3324;50.796;7.228;2022-11-02T09:10:26;0.20;;;0.20;;
6580;SDS011;3324;50.796;7.228;2022-11-02T09:12:53;3.60;;;3.30;;
6580;SDS011;3324;50.796;7.228;2022-11-02T09:15:18;4.53;;;4.25;;
6580;SDS011;3324;50.796;7.228;2022-11-02T09:17:48;7.40;;;7.30;;
6580;SDS011;3324;50.796;7.228;2022-11-02T09:20:16;6.55;;;6.45;;
6580;SDS011;3324;50.796;7.228;2022-11-02T09:22:43;8.70;;;8.50;;
6580;SDS011;3324;50.796;7.228;2022-11-02T09:25:09;8.02;;;7.93;;
6580;SDS011;3324;50.796;7.228;2022-11-02T09:27:36;7.60;;;7.50;;
6580;SDS011;3324;50.796;7.228;2022-11-02T09:32:28;8.25;;;8.05;;
6580;SDS011;3324;50.796;7.228;2022-11-02T09:34:57;7.60;;;7.50;;
6580;SDS011;3324;50.796;7.228;2022-11-02T09:37:23;1.75;;;1.75;;
6580;SDS011;3324;50.796;7.228;2022-11-02T09:39:49;6.30;;;6.20;;
6580;SDS011;3324;50.796;7.228;2022-11-02T09:42:36;9.30;;;8.90;;
6580;SDS011;3324;50.796;7.228;2022-11-02T09:45:16;8.77;;;8.57;;
6580;SDS011;3324;50.796;7.228;2022-11-02T09:47:46;10.10;;;9.60;;
6580;SDS011;3324;50.796;7.228;2022-11-02T09:50:17;9.40;;;9.20;;
6580;SDS011;3324;50.796;7.228;2022-11-02T09:52:46;7.90;;;7.60;;
6580;SDS011;3324;50.796;7.228;2022-11-02T09:55:18;6.97;;;6.88;;
6580;SDS011;3324;50.796;7.228;2022-11-02T09:57:50;0.30;;;0.30;;
6580;SDS011;3324;50.796;7.228;2022-11-02T10:00:21;0.75;;;0.75;;
6580;SDS011;3324;50.796;7.228;2022-11-02T10:03:00;4.00;;;4.00;;
6580;SDS011;3324;50.796;7.228;2022-11-02T10:08:25;6.10;;;5.70;;
6580;SDS011;3324;50.796;7.228;2022-11-02T10:13:51;5.50;;;5.30;;
6580;SDS011;3324;50.796;7.228;2022-11-02T10:16:23;8.10;;;7.90;;
6580;SDS011;3324;50.796;7.228;2022-11-02T10:18:56;5.40;;;5.30;;
6580;SDS011;3324;50.796;7.228;2022-11-02T10:21:26;7.00;;;6.90;;
6580;SDS011;3324;50.796;7.228;2022-11-02T10:23:56;3.43;;;3.23;;
6580;SDS011;3324;50.796;7.228;2022-11-02T10:26:28;5.22;;;5.13;;
6580;SDS011;3324;50.796;7.228;2022-11-02T10:28:59;2.00;;;0.90;;
6580;SDS011;3324;50.796;7.228;2022-11-02T10:31:29;1.55;;;1.55;;
6580;SDS011;3324;50.796;7.228;2022-11-02T10:33:58;5.68;;;5.57;;
6580;SDS011;3324;50.796;7.228;2022-11-02T10:36:38;8.20;;;7.80;;
6580;SDS011;3324;50.796;7.228;2022-11-02T10:42:39;3.00;;;3.00;;
6580;SDS011;3324;50.796;7.228;2022-11-02T10:47:27;6.60;;;6.30;;
6580;SDS011;3324;50.796;7.228;2022-11-02T10:50:02;6.60;;;6.30;;
6580;SDS011;3324;50.796;7.228;2022-11-02T10:52:49;8.07;;;7.87;;
6580;SDS011;3324;50.796;7.228;2022-11-02T10:58:20;2.00;;;2.00;;
6580;SDS011;3324;50.796;7.228;2022-11-02T11:00:46;8.80;;;8.60;;
6580;SDS011;3324;50.796;7.228;2022-11-02T11:03:15;7.30;;;7.20;;
6580;SDS011;3324;50.796;7.228;2022-11-02T11:08:30;8.70;;;8.50;;
6580;SDS011;3324;50.796;7.228;2022-11-02T11:11:35;9.10;;;8.90;;
6580;SDS011;3324;50.796;7.228;2022-11-02T11:14:06;4.63;;;4.55;;
6580;SDS011;3324;50.796;7.228;2022-11-02T11:16:45;2.10;;;1.40;;
6580;SDS011;3324;50.796;7.228;2022-11-02T11:21:44;7.57;;;7.47;;
6580;SDS011;3324;50.796;7.228;2022-11-02T11:24:17;6.10;;;6.00;;
6580;SDS011;3324;50.796;7.228;2022-11-02T11:26:58;5.90;;;5.80;;
6580;SDS011;3324;50.796;7.228;2022-11-02T11:29:25;6.00;;;5.70;;
6580;SDS011;3324;50.796;7.228;2022-11-02T11:31:58;7.57;;;7.27;;
6580;SDS011;3324;50.796;7.228;2022-11-02T11:34:27;8.60;;;8.40;;
6580;SDS011;3324;50.796;7.228;2022-11-02T11:37:08;8.80;;;8.60;;
6580;SDS011;3324;50.796;7.228;2022-11-02T11:39:36;10.90;;;10.40;;
6580;SDS011;3324;50.796;7.228;2022-11-02T11:42:04;9.50;;;9.20;;
6580;SDS011;3324;50.796;7.228;2022-11-02T11:44:43;6.45;;;6.35;;
6580;SDS011;3324;50.796;7.228;2022-11-02T11:47:23;2.10;;;2.10;;
6580;SDS011;3324;50.796;7.228;2022-11-02T11:49:50;0.30;;;0.30;;
6580;SDS011;3324;50.796;7.228;2022-11-02T11:52:18;6.67;;;6.37;;
6580;SDS011;3324;50.796;7.228;2022-11-02T11:54:57;9.70;;;9.30;;
6580;SDS011;3324;50.796;7.228;2022-11-02T11:57:46;9.80;;;9.40;;
6580;SDS011;3324;50.796;7.228;2022-11-02T12:00:27;10.80;;;10.30;;
6580;SDS011;3324;50.796;7.228;2022-11-02T12:03:06;11.03;;;10.43;;
6580;SDS011;3324;50.796;7.228;2022-11-02T12:08:18;8.40;;;8.20;;
6580;SDS011;3324;50.796;7.228;2022-11-02T12:19:24;4.53;;;4.43;;
6580;SDS011;3324;50.796;7.228;2022-11-02T12:25:17;6.23;;;6.13;;
6580;SDS011;3324;50.796;7.228;2022-11-02T12:29:59;0.45;;;0.45;;
6580;SDS011;3324;50.796;7.228;2022-11-02T12:35:25;9.70;;;9.25;;
6580;SDS011;3324;50.796;7.228;2022-11-02T12:43:56;5.82;;;5.72;;
6580;SDS011;3324;50.796;7.228;2022-11-02T12:46:33;8.70;;;8.50;;
6580;SDS011;3324;50.796;7.228;2022-11-02T12:54:55;10.43;;;9.93;;
6580;SDS011;3324;50.796;7.228;2022-11-02T12:57:24;11.00;;;10.40;;
6580;SDS011;3324;50.796;7.228;2022-11-02T12:59:54;11.30;;;10.70;;
6580;SDS011;3324;50.796;7.228;2022-11-02T13:05:11;10.80;;;10.40;;
6580;SDS011;3324;50.796;7.228;2022-11-02T13:12:48;11.10;;;10.50;;
6580;SDS011;3324;50.796;7.228;2022-11-02T13:15:19;11.00;;;10.60;;
6580;SDS011;3324;50.796;7.228;2022-11-02T13:17:49;10.50;;;10.10;;
6580;SDS011;3324;50.796;7.228;2022-11-02T13:23:33;7.75;;;7.65;;
6580;SDS011;3324;50.796;7.228;2022-11-02T13:25:42;0.60;;;0.60;;
6580;SDS011;3324;50.796;7.228;2022-11-02T13:30:50;11.27;;;10.68;;
6580;SDS011;3324;50.796;7.228;2022-11-02T13:33:22;4.30;;;4.30;;
6580;SDS011;3324;50.796;7.228;2022-11-02T13:35:53;5.80;;;5.70;;
6580;SDS011;3324;50.796;7.228;2022-11-02T13:38:34;4.00;;;4.00;;
6580;SDS011;3324;50.796;7.228;2022-11-02T13:44:36;6.00;;;5.90;;
6580;SDS011;3324;50.796;7.228;2022-11-02T13:50:15;4.35;;;4.35;;
6580;SDS011;3324;50.796;7.228;2022-11-02T13:52:45;7.13;;;7.03;;
6580;SDS011;3324;50.796;7.228;2022-11-02T13:58:12;8.70;;;8.50;;
6580;SDS011;3324;50.796;7.228;2022-11-02T14:00:46;9.40;;;9.00;;
6580;SDS011;3324;50.796;7.228;2022-11-02T14:05:49;8.60;;;8.30;;
6580;SDS011;3324;50.796;7.228;2022-11-02T14:08:20;0.70;;;0.70;;
6580;SDS011;3324;50.796;7.228;2022-11-02T14:26:58;0.30;;;0.30;;
6580;SDS011;3324;50.796;7.228;2022-11-02T14:29:35;0.32;;;0.32;;
6580;SDS011;3324;50.796;7.228;2022-11-02T14:49:19;4.05;;;4.05;;
6580;SDS011;3324;50.796;7.228;2022-11-02T14:52:00;3.30;;;3.30;;
6580;SDS011;3324;50.796;7.228;2022-11-02T14:54:29;2.65;;;2.45;;
6580;SDS011;3324;50.796;7.228;2022-11-02T14:57:01;2.20;;;1.90;;
6580;SDS011;3324;50.796;7.228;2022-11-02T14:59:39;0.30;;;0.30;;
6580;SDS011;3324;50.796;7.228;2022-11-02T15:04:45;0.30;;;0.30;;
6580;SDS011;3324;50.796;7.228;2022-11-02T15:07:17;0.30;;;0.30;;
6580;SDS011;3324;50.796;7.228;2022-11-02T15:09:51;2.20;;;0.60;;
6580;SDS011;3324;50.796;7.228;2022-11-02T15:12:21;0.30;;;0.20;;
6580;SDS011;3324;50.796;7.228;2022-11-02T15:14:53;2.27;;;2.07;;
6580;SDS011;3324;50.796;7.228;2022-11-02T15:19:49;2.00;;;0.60;;
6580;SDS011;3324;50.796;7.228;2022-11-02T15:22:46;0.30;;;0.20;;
6580;SDS011;3324;50.796;7.228;2022-11-02T15:25:40;0.30;;;0.30;;
6580;SDS011;3324;50.796;7.228;2022-11-02T15:28:31;0.30;;;0.30;;
6580;SDS011;3324;50.796;7.228;2022-11-02T15:31:03;2.10;;;0.60;;
6580;SDS011;3324;50.796;7.228;2022-11-02T15:33:38;0.30;;;0.20;;
6580;SDS011;3324;50.796;7.228;2022-11-02T15:36:07;0.30;;;0.20;;
6580;SDS011;3324;50.796;7.228;2022-11-02T15:38:40;2.05;;;0.60;;
6580;SDS011;3324;50.796;7.228;2022-11-02T15:43:51;0.30;;;0.20;;
6580;SDS011;3324;50.796;7.228;2022-11-02T16:00:24;0.20;;;0.20;;
6580;SDS011;3324;50.796;7.228;2022-11-02T16:03:05;0.30;;;0.20;;
6580;SDS011;3324;50.796;7.228;2022-11-02T16:05:33;0.30;;;0.20;;
6580;SDS011;3324;50.796;7.228;2022-11-02T16:08:20;0.30;;;0.20;;
6580;SDS011;3324;50.796;7.228;2022-11-02T16:10:49;0.10;;;0.10;;
6580;SDS011;3324;50.796;7.228;2022-11-02T16:13:17;0.40;;;0.40;;
6580;SDS011;3324;50.796;7.228;2022-11-02T16:15:44;0.30;;;0.30;;
6580;SDS011;3324;50.796;7.228;2022-11-02T16:21:19;0.30;;;0.30;;
6580;SDS011;3324;50.796;7.228;2022-11-02T16:23:48;2.20;;;0.75;;
6580;SDS011;3324;50.796;7.228;2022-11-02T16:26:24;0.40;;;0.30;;
6580;SDS011;3324;50.796;7.228;2022-11-02T16:28:54;0.40;;;0.40;;
6580;SDS011;3324;50.796;7.228;2022-11-02T16:31:23;0.40;;;0.40;;
6580;SDS011;3324;50.796;7.228;2022-11-02T16:33:55;0.50;;;0.50;;
6580;SDS011;3324;50.796;7.228;2022-11-02T16:36:35;1.85;;;0.50;;
6580;SDS011;3324;50.796;7.228;2022-11-02T16:39:03;2.10;;;1.10;;
6580;SDS011;3324;50.796;7.228;2022-11-02T16:41:45;0.30;;;0.30;;
6580;SDS011;3324;50.796;7.228;2022-11-02T16:44:17;0.30;;;0.30;;
6580;SDS011;3324;50.796;7.228;2022-11-02T16:49:23;2.00;;;0.70;;
6580;SDS011;3324;50.796;7.228;2022-11-02T16:52:00;0.30;;;0.30;;
6580;SDS011;3324;50.796;7.228;2022-11-02T16:54:41;0.30;;;0.30;;
6580;SDS011;3324;50.796;7.228;2022-11-02T16:59:55;0.30;;;0.30;;
6580;SDS011;3324;50.796;7.228;2022-11-02T17:02:38;2.00;;;0.70;;
6580;SDS011;3324;50.796;7.228;2022-11-02T17:05:24;0.30;;;0.30;;
6580;SDS011;3324;50.796;7.228;2022-11-02T17:08:03;2.20;;;1.80;;
6580;SDS011;3324;50.796;7.228;2022-11-02T17:10:36;2.30;;;1.90;;
6580;SDS011;3324;50.796;7.228;2022-11-02T17:13:05;0.40;;;0.40;;
6580;SDS011;3324;50.796;7.228;2022-11-02T17:15:39;0.40;;;0.40;;
6580;SDS011;3324;50.796;7.228;2022-11-02T17:18:13;2.72;;;2.53;;
6580;SDS011;3324;50.796;7.228;2022-11-02T17:21:14;2.40;;;1.30;;
6580;SDS011;3324;50.796;7.228;2022-11-02T17:23:37;0.40;;;0.40;;
6580;SDS011;3324;50.796;7.228;2022-11-02T17:31:52;0.40;;;0.40;;
6580;SDS011;3324;50.796;7.228;2022-11-02T17:34:25;0.30;;;0.30;;
6580;SDS011;3324;50.796;7.228;2022-11-02T17:36:51;0.30;;;0.30;;
6580;SDS011;3324;50.796;7.228;2022-11-02T17:39:18;0.30;;;0.30;;
6580;SDS011;3324;50.796;7.228;2022-11-02T17:41:53;0.30;;;0.30;;
6580;SDS011;3324;50.796;7.228;2022-11-02T17:44:39;0.30;;;0.25;;
6580;SDS011;3324;50.796;7.228;2022-11-02T17:47:10;1.60;;;0.60;;
6580;SDS011;3324;50.796;7.228;2022-11-02T17:49:36;0.20;;;0.20;;
6580;SDS011;3324;50.796;7.228;2022-11-02T17:52:02;0.20;;;0.20;;
6580;SDS011;3324;50.796;7.228;2022-11-02T17:54:28;0.30;;;0.30;;
6580;SDS011;3324;50.796;7.228;2022-11-02T17:56:53;0.30;;;0.30;;
6580;SDS011;3324;50.796;7.228;2022-11-02T17:59:19;2.00;;;0.60;;
6580;SDS011;3324;50.796;7.228;2022-11-02T18:01:45;0.20;;;0.15;;
6580;SDS011;3324;50.796;7.228;2022-11-02T18:04:10;0.20;;;0.20;;
6580;SDS011;3324;50.796;7.228;2022-11-02T18:06:36;2.00;;;0.65;;
6580;SDS011;3324;50.796;7.228;2022-11-02T18:09:01;3.10;;;0.80;;
6580;SDS011;3324;50.796;7.228;2022-11-02T18:11:38;2.00;;;0.90;;
6580;SDS011;3324;50.796;7.228;2022-11-02T18:14:04;2.00;;;0.90;;
6580;SDS011;3324;50.796;7.228;2022-11-02T18:16:30;2.10;;;0.95;;
6580;SDS011;3324;50.796;7.228;2022-11-02T18:18:56;0.50;;;0.50;;
6580;SDS011;3324;50.796;7.228;2022-11-02T18:21:22;0.50;;;0.50;;
6580;SDS011;3324;50.796;7.228;2022-11-02T18:23:48;0.50;;;0.50;;
6580;SDS011;3324;50.796;7.228;2022-11-02T18:26:13;0.50;;;0.50;;
6580;SDS011;3324;50.796;7.228;2022-11-02T18:28:39;2.15;;;0.90;;